Airfield :
LOGIN :

Register | Disclaimer

   EN    FR    IT 

 










Legend :    VFR   Marginal VFR   IFR   Intensive IFR   Very Intensive IFR
Visi :
Ceiling :
>= 8 km
>= 3000ft
5 to 8 km
1000 to 3000 ft
1500m to 5 km
500 to 1000 ft
800 to 1500m
200 to 500 ft
< 800m
< 200 ft
Symbols :   Thunderstorms  Fog  Heavy snow  Heavy precipitations  Wind > 20 kt
SIGMETs :     Misc.  Thunderstorms  Icing  Turbulence  Mountain Waves  Volcanic Ashes







- Airport Elevation : 236 ft
- IATA code : MMX


ESMS - Malmö Sturup

CURRENT METAR :
  • 241050Z 35004KT CAVOK 24/15 Q1026

EXPIRED METARs :
  • 241020Z VRB03KT CAVOK 24/14 Q1027
  • 240950Z VRB03KT CAVOK 23/14 Q1027
  • 240920Z VRB02KT CAVOK 22/14 Q1027
  • 240850Z VRB01KT CAVOK 22/15 Q1027

TAF TAF ESMS
Valid from the 24 at 06:00 until the 25 at 06:00 UTC


240504Z 2406/2506 VRB02KT 9999 FEW030
TEMPO 2406/2407 0400 FG VV002
No reported NOTAMs for that airfield.



MET'MAP, your aeronautical weather chart ! - Copyright ORBIFLY December 2007 - Disclaimer

ORBIFLY MET'MAP TEAM :

Programming & Development : Alexandra Zaïnal
Concept & Development : Baudouin d'Aumeries
Co-Development & Prog : Marc-Olivier Méhu
Technical & hardware support : Manuel Goepfert

Contact : metmap@orbifly.com




SOURCES & CREDITS :

   NOAA